createdAt,value
2022-07-28T00:03:56.657Z,12.77
2022-07-28T00:09:06.219Z,12.81
2022-07-28T00:14:14.703Z,12.86
2022-07-28T00:19:23.002Z,12.91
2022-07-28T00:24:32.215Z,12.97
2022-07-28T00:29:49.166Z,13.04
2022-07-28T00:34:59.192Z,13.11
2022-07-28T00:40:09.568Z,13.18
2022-07-28T00:45:18.372Z,13.25
2022-07-28T00:50:27.146Z,13.33
2022-07-28T00:56:05.437Z,13.39
2022-07-28T01:01:04.538Z,13.45
2022-07-28T01:06:25.331Z,13.51
2022-07-28T01:11:44.087Z,13.56
2022-07-28T01:16:58.965Z,13.62
2022-07-28T01:22:10.961Z,13.67
2022-07-28T01:27:40.647Z,13.72
2022-07-28T01:32:54.937Z,13.76
2022-07-28T01:38:07.297Z,13.81
2022-07-28T01:43:20.331Z,13.84
2022-07-28T01:48:30.837Z,13.87
2022-07-28T01:53:41.966Z,13.90
2022-07-28T01:58:53.532Z,13.91
2022-07-28T02:04:02.916Z,13.92
2022-07-28T02:09:12.037Z,13.93
2022-07-28T02:14:24.456Z,13.92
2022-07-28T02:19:33.792Z,13.91
2022-07-28T02:24:42.779Z,13.90
2022-07-28T02:29:55.027Z,13.88
2022-07-28T02:35:10.435Z,13.86
2022-07-28T02:40:21.322Z,13.85
2022-07-28T02:45:30.913Z,13.83
2022-07-28T02:50:41.440Z,13.81
2022-07-28T02:55:51.771Z,13.77
2022-07-28T03:01:02.017Z,13.75
2022-07-28T03:06:10.121Z,13.71
2022-07-28T03:11:18.314Z,13.69
2022-07-28T03:16:27.097Z,13.66
2022-07-28T03:21:36.005Z,13.64
2022-07-28T03:26:50.276Z,13.62
2022-07-28T03:32:00.385Z,13.61
2022-07-28T03:37:10.931Z,13.61
2022-07-28T03:42:21.405Z,13.62
2022-07-28T03:47:29.423Z,13.63
2022-07-28T03:52:38.332Z,13.65
2022-07-28T03:57:47.632Z,13.66
2022-07-28T04:02:55.705Z,13.69
2022-07-28T04:08:03.250Z,13.70
2022-07-28T04:13:11.363Z,13.72
2022-07-28T04:18:20.199Z,13.75
2022-07-28T04:23:28.308Z,13.78
2022-07-28T04:28:36.353Z,13.82
2022-07-28T04:33:44.902Z,13.85
2022-07-28T04:38:52.967Z,13.88
2022-07-28T04:44:01.010Z,13.93
2022-07-28T04:49:09.294Z,13.99
2022-07-28T04:54:19.964Z,14.04
2022-07-28T04:59:29.989Z,14.10
2022-07-28T05:04:41.464Z,14.18
2022-07-28T05:09:49.564Z,14.24
2022-07-28T05:14:57.731Z,14.31
2022-07-28T05:20:06.430Z,14.39
2022-07-28T05:25:20.718Z,14.46
2022-07-28T05:30:29.921Z,14.55
2022-07-28T05:35:38.398Z,14.67
2022-07-28T05:40:45.634Z,14.79
2022-07-28T05:45:54.156Z,14.91
2022-07-28T05:51:02.290Z,15.02
2022-07-28T05:56:10.375Z,15.14
2022-07-28T06:01:18.808Z,15.26
2022-07-28T06:06:26.878Z,15.36
2022-07-28T06:11:35.108Z,15.48
2022-07-28T06:16:44.059Z,15.59
2022-07-28T06:21:52.913Z,15.68
2022-07-28T06:27:03.354Z,15.79
2022-07-28T06:32:11.712Z,15.89
2022-07-28T06:37:19.966Z,16.00
2022-07-28T06:42:28.125Z,16.13
2022-07-28T06:47:36.265Z,16.28
2022-07-28T06:52:55.315Z,16.47
2022-07-28T06:58:03.745Z,16.67
2022-07-28T07:03:12.874Z,16.86
2022-07-28T07:08:21.177Z,17.04
2022-07-28T07:13:31.069Z,17.20
2022-07-28T07:18:39.398Z,17.35
2022-07-28T07:23:48.110Z,17.48
2022-07-28T07:28:56.252Z,17.59
2022-07-28T07:34:05.349Z,17.73
2022-07-28T07:39:14.384Z,17.88
2022-07-28T07:44:23.329Z,18.08
2022-07-28T07:49:45.306Z,18.31
2022-07-28T07:54:55.122Z,18.58
2022-07-28T08:00:04.145Z,18.81
2022-07-28T08:05:13.872Z,18.96
2022-07-28T08:10:23.419Z,19.11
2022-07-28T08:15:31.816Z,19.20
2022-07-28T08:20:41.613Z,19.30
2022-07-28T08:25:50.485Z,19.37
2022-07-28T08:30:58.523Z,19.43
2022-07-28T08:36:07.791Z,19.50
2022-07-28T08:41:24.730Z,19.57
2022-07-28T08:46:38.213Z,19.66
2022-07-28T08:51:49.203Z,19.73
2022-07-28T08:56:59.479Z,19.80
2022-07-28T09:02:07.756Z,19.89
2022-07-28T09:07:16.558Z,19.95
2022-07-28T09:12:27.287Z,19.99
2022-07-28T09:17:36.535Z,20.01
2022-07-28T09:22:59.128Z,20.01
2022-07-28T09:28:13.488Z,20.01
2022-07-28T09:33:43.167Z,20.03
2022-07-28T09:38:53.902Z,20.07
2022-07-28T09:44:02.331Z,20.16
2022-07-28T09:49:10.667Z,20.28
2022-07-28T09:54:20.226Z,20.40
2022-07-28T09:59:42.342Z,20.45
2022-07-28T10:04:55.698Z,20.47
2022-07-28T10:10:05.834Z,20.47
2022-07-28T10:15:46.661Z,20.46
2022-07-28T10:21:00.527Z,20.47
2022-07-28T10:26:13.184Z,20.50
2022-07-28T10:31:30.981Z,20.57
2022-07-28T10:36:39.525Z,20.64
2022-07-28T10:41:47.820Z,20.71
2022-07-28T10:46:56.446Z,20.78
2022-07-28T10:52:15.509Z,20.81
2022-07-28T10:57:34.792Z,20.82
2022-07-28T11:02:55.843Z,20.80
2022-07-28T11:08:06.797Z,20.76
2022-07-28T11:13:33.021Z,20.69
2022-07-28T11:19:36.862Z,20.60
2022-07-28T11:25:18.646Z,20.49
2022-07-28T11:30:58.613Z,20.39
2022-07-28T11:36:07.775Z,20.28
2022-07-28T11:41:32.545Z,20.19
2022-07-28T11:46:44.142Z,20.12
2022-07-28T11:52:13.986Z,20.08
2022-07-28T11:57:26.431Z,20.06
2022-07-28T12:02:37.471Z,20.06
2022-07-28T12:07:48.470Z,20.09
2022-07-28T12:12:59.561Z,20.14
2022-07-28T12:18:14.806Z,20.20
2022-07-28T12:23:39.011Z,20.27
2022-07-28T12:28:57.149Z,20.33
2022-07-28T12:34:07.428Z,20.40
2022-07-28T12:39:16.129Z,20.47
2022-07-28T12:44:34.297Z,20.56
2022-07-28T12:49:44.011Z,20.65
2022-07-28T12:54:55.428Z,20.74
2022-07-28T13:00:12.141Z,20.82
2022-07-28T13:05:55.577Z,20.89
2022-07-28T13:11:07.318Z,20.96
2022-07-28T13:16:20.870Z,21.03
2022-07-28T13:21:56.572Z,21.09
2022-07-28T13:27:07.333Z,21.15
2022-07-28T13:32:16.038Z,21.23
2022-07-28T13:37:24.462Z,21.30
2022-07-28T13:42:33.130Z,21.34
2022-07-28T13:47:42.006Z,21.38
2022-07-28T13:52:50.588Z,21.40
2022-07-28T13:57:59.743Z,21.42
2022-07-28T14:03:08.867Z,21.42
2022-07-28T14:08:20.438Z,21.40
2022-07-28T14:13:38.266Z,21.38
2022-07-28T14:18:47.053Z,21.38
2022-07-28T14:23:56.509Z,21.37
2022-07-28T14:29:11.640Z,21.34
2022-07-28T14:34:21.851Z,21.32
2022-07-28T14:39:34.201Z,21.29
2022-07-28T14:44:42.436Z,21.25
2022-07-28T14:49:58.171Z,21.18
2022-07-28T14:55:08.700Z,21.12
2022-07-28T15:00:19.736Z,21.05
2022-07-28T15:05:28.607Z,21.00
2022-07-28T15:10:37.324Z,20.94
2022-07-28T15:15:45.681Z,20.89
2022-07-28T15:20:56.804Z,20.82
2022-07-28T15:26:05.860Z,20.74
2022-07-28T15:31:15.007Z,20.66
2022-07-28T15:36:25.202Z,20.60
2022-07-28T15:41:33.928Z,20.53
2022-07-28T15:46:42.607Z,20.47
2022-07-28T15:51:51.840Z,20.42
2022-07-28T15:57:00.409Z,20.36
2022-07-28T16:02:09.401Z,20.31
2022-07-28T16:07:23.880Z,20.27
2022-07-28T16:12:32.476Z,20.22
2022-07-28T16:17:42.688Z,20.19
2022-07-28T16:22:51.793Z,20.16
2022-07-28T16:28:00.272Z,20.12
2022-07-28T16:33:09.643Z,20.09
2022-07-28T16:38:18.271Z,20.06
2022-07-28T16:43:27.482Z,20.01
2022-07-28T16:48:36.754Z,19.97
2022-07-28T16:53:45.613Z,19.93
2022-07-28T16:58:54.661Z,19.89
2022-07-28T17:04:03.899Z,19.86
2022-07-28T17:09:12.340Z,19.82
2022-07-28T17:14:20.592Z,19.78
2022-07-28T17:19:33.117Z,19.75
2022-07-28T17:24:41.918Z,19.72
2022-07-28T17:29:50.452Z,19.69
2022-07-28T17:34:58.874Z,19.66
2022-07-28T17:40:09.063Z,19.63
2022-07-28T17:45:17.693Z,19.60
2022-07-28T17:50:25.994Z,19.57
2022-07-28T17:56:00.187Z,19.54
2022-07-28T18:01:12.852Z,19.51
2022-07-28T18:06:21.957Z,19.49
2022-07-28T18:11:30.694Z,19.46
2022-07-28T18:16:39.064Z,19.41
2022-07-28T18:21:47.371Z,19.40
2022-07-28T18:26:56.238Z,19.37
2022-07-28T18:32:04.322Z,19.33
2022-07-28T18:37:13.046Z,19.29
2022-07-28T18:42:22.093Z,19.23
2022-07-28T18:47:30.932Z,19.17
2022-07-28T18:52:40.997Z,19.09
2022-07-28T18:57:50.001Z,19.00
2022-07-28T19:02:58.301Z,18.88
2022-07-28T19:08:07.503Z,18.76
2022-07-28T19:13:15.597Z,18.63
2022-07-28T19:18:24.639Z,18.49
2022-07-28T19:23:33.718Z,18.34
2022-07-28T19:28:42.757Z,18.11
2022-07-28T19:33:51.326Z,18.03
2022-07-28T19:38:59.369Z,17.87
2022-07-28T19:44:08.791Z,17.71
2022-07-28T19:49:18.225Z,17.55
2022-07-28T19:54:27.117Z,17.37
2022-07-28T19:59:36.445Z,17.20
2022-07-28T20:04:44.948Z,17.02
2022-07-28T20:09:53.293Z,16.85
2022-07-28T20:15:01.460Z,16.69
2022-07-28T20:20:12.826Z,16.52
2022-07-28T20:25:21.591Z,16.36
2022-07-28T20:30:31.059Z,16.19
2022-07-28T20:35:40.068Z,16.03
2022-07-28T20:40:48.845Z,15.85
2022-07-28T20:45:57.139Z,15.69
2022-07-28T20:51:05.726Z,15.52
2022-07-28T20:56:14.412Z,15.37
2022-07-28T21:01:23.806Z,15.23
2022-07-28T21:06:32.291Z,15.09
2022-07-28T21:11:40.675Z,14.95
2022-07-28T21:16:49.490Z,14.82
2022-07-28T21:21:58.295Z,14.68
2022-07-28T21:27:06.572Z,14.54
2022-07-28T21:32:15.144Z,14.41
2022-07-28T21:37:23.518Z,14.27
2022-07-28T21:42:31.547Z,14.14
2022-07-28T21:47:39.805Z,14.02
2022-07-28T21:52:47.991Z,13.89
2022-07-28T21:57:56.023Z,13.78
2022-07-28T22:03:04.718Z,13.66
2022-07-28T22:08:12.684Z,13.54
2022-07-28T22:13:21.828Z,13.43
2022-07-28T22:18:30.120Z,13.32
2022-07-28T22:23:38.156Z,13.13
2022-07-28T22:28:46.264Z,13.13
2022-07-28T22:33:54.216Z,13.05
2022-07-28T22:39:02.492Z,12.97
2022-07-28T22:44:10.644Z,12.88
2022-07-28T22:49:18.694Z,12.79
2022-07-28T22:54:26.764Z,12.70
2022-07-28T22:59:38.506Z,12.61
2022-07-28T23:04:51.726Z,12.51
2022-07-28T23:10:03.652Z,12.41
2022-07-28T23:15:12.797Z,12.30
2022-07-28T23:20:20.945Z,12.21
2022-07-28T23:25:34.278Z,12.12
2022-07-28T23:30:42.379Z,12.04
2022-07-28T23:35:50.725Z,11.94
2022-07-28T23:40:58.627Z,11.86
2022-07-28T23:46:07.005Z,11.79
2022-07-28T23:51:16.267Z,11.72
2022-07-28T23:56:24.437Z,11.64
